WetterOnline ( https://www.wetteronline.at )

Wetter aktuell Höxter

Aktuelles Wetter: Lügde-Paenbruch (260m)

6-stündlich | Neueste Meldungen
Ortszeit Temperatur Wetter
Mi, 30.11. 7:00 5.8° C bedeckt
Mi, 30.11. 1:00 6.4° C Sprühregen
Di, 29.11. 19:00 6.4° C Nebel
Di, 29.11. 13:00 5.9° C Sprühregen
Di, 29.11. 7:00 4.7° C Nebel
Di, 29.11. 1:00 4.7° C bedeckt
Mo, 28.11. 19:00 5.0° C Sprühregen
Mo, 28.11. 13:00 5.2° C wolkig
Ortszeit Temperatur Wetter
Mi, 30.11. 7:00 5.8° C bedeckt
Mi, 30.11. 6:50 5.8° C Dunst
Mi, 30.11. 6:40 5.8° C Dunst
Mi, 30.11. 6:30 5.8° C bedeckt
Mi, 30.11. 6:20 5.8° C Dunst
Mi, 30.11. 6:10 5.8° C Dunst
Mi, 30.11. 6:00 5.8° C bedeckt
Mi, 30.11. 5:30 5.8° C bedeckt
Mi, 30.11. 5:00 5.9° C Sprühregen
Mi, 30.11. 4:30 6.0° C Sprühregen
Mi, 30.11. 4:00 6.0° C Nebel
Ortszeit Relative Feuchte Sichtweite
Mi, 30.11. 7:00 98% 5.0 km
Mi, 30.11. 1:00 99% 1.6 km
Di, 29.11. 19:00 100% 0.4 km
Di, 29.11. 13:00 99% 2.0 km
Di, 29.11. 7:00 100% 0.2 km
Di, 29.11. 1:00 97% 5.0 km
Mo, 28.11. 19:00 86% 19 km
Mo, 28.11. 13:00 78% 35 km
Ortszeit Relative Feuchte Sichtweite
Mi, 30.11. 7:00 98% 5.0 km
Mi, 30.11. 6:50 98% -
Mi, 30.11. 6:40 98% -
Mi, 30.11. 6:30 100% 1.0 km
Mi, 30.11. 6:20 100% -
Mi, 30.11. 6:10 99% -
Mi, 30.11. 6:00 99% 2.8 km
Mi, 30.11. 5:30 99% 3.0 km
Mi, 30.11. 5:00 100% 2.8 km
Mi, 30.11. 4:30 100% 2.5 km
Mi, 30.11. 4:00 98% 3.0 km
Ortszeit Niederschlagsmenge Niederschlagsart
Mi, 30.11. 7:00 1 l/m2 in 12 Std. Regen
Mi, 30.11. 1:00 0.9 l/m2 in 6 Std. Regen
Di, 29.11. 19:00 0.1 l/m2 in 12 Std. Regen
Di, 29.11. 13:00 0.1 l/m2 in 6 Std. Regen
Di, 29.11. 7:00 0.1 l/m2 in 12 Std. Regen
Di, 29.11. 1:00 0.1 l/m2 in 6 Std. Sprühregen
Mo, 28.11. 19:00 0.1 l/m2 in 12 Std. Regen
Mo, 28.11. 13:00 0.1 l/m2 in 6 Std. Regen
Ortszeit Niederschlagsmenge Niederschlagsart
Mi, 30.11. 7:00 <0.05 l/m2 in 1 Std. Regen
Mi, 30.11. 6:50 keine Meldung -
Mi, 30.11. 6:40 keine Meldung -
Mi, 30.11. 6:30 <0.05 l/m2 in 1 Std. Schnee
Mi, 30.11. 6:20 keine Meldung -
Mi, 30.11. 6:10 keine Meldung -
Mi, 30.11. 6:00 <0.05 l/m2 in 1 Std. Sprühregen
Mi, 30.11. 5:30 <0.05 l/m2 in 1 Std. Schnee
Mi, 30.11. 5:00 0.1 l/m2 in 1 Std. Regen
Mi, 30.11. 4:30 <0.05 l/m2 in 1 Std. -
Mi, 30.11. 4:00 0.0 l/m2 in 1 Std. Sprühregen
Ortszeit Stärke Spitze Richtung
km/h Bft. km/h Grad Sektor
Mi, 30.11. 7:00 4 1 14 30° NO
Mi, 30.11. 1:00 7 2 7 230° SW
Di, 29.11. 19:00 4 1 11 130° SO
Di, 29.11. 13:00 0 0 4 - -
Di, 29.11. 7:00 4 1 7 200° S
Di, 29.11. 1:00 7 2 11 170° S
Mo, 28.11. 19:00 4 1 18 210° SW
Mo, 28.11. 13:00 13 3 30 170° S
Ortszeit Stärke Spitze Richtung
km/h Bft. km/h Grad Sektor
Mi, 30.11. 7:00 4 1 7 30° NO
Mi, 30.11. 6:50 4 1 - 30° NO
Mi, 30.11. 6:40 4 1 - 20° N
Mi, 30.11. 6:30 0 0 4 - -
Mi, 30.11. 6:20 0 0 - 210° SW
Mi, 30.11. 6:10 2 1 - 210° SW
Mi, 30.11. 6:00 2 1 4 230° SW
Mi, 30.11. 5:30 4 1 4 210° SW
Mi, 30.11. 5:00 2 1 9 340° N
Mi, 30.11. 4:30 4 1 7 310° NW
Mi, 30.11. 4:00 7 2 11 280° W
Ortszeit Untergrenze Bedeckung Gattung
total tief tief mittel hoch
Mi, 30.11. 7:00 60 m 8/8 8/8 - - -
Mi, 30.11. 1:00 60 m 7/8 7/8 - - -
Di, 29.11. 19:00 30 m 8/8 8/8 - - -
Di, 29.11. 13:00 60 m 8/8 8/8 - - -
Di, 29.11. 7:00 <30 m 8/8 0/8 - - -
Di, 29.11. 1:00 120 m 8/8 8/8 - - -
Mo, 28.11. 19:00 450 m 8/8 8/8 - - -
Mo, 28.11. 13:00 600 m 8/8 1/8 - - -
Ortszeit Bedeckungsgrad in Achtel und Wolkenuntergrenze
Mi, 30.11. 7:00 7(60m) 8(180m)
Mi, 30.11. 6:50 7(60m) 8(180m)
Mi, 30.11. 6:40 8
Mi, 30.11. 6:30 8(120m)
Mi, 30.11. 6:20 8(120m)
Mi, 30.11. 6:10 8
Mi, 30.11. 6:00 8(150m)
Mi, 30.11. 5:30 7(150m) 8(390m)
Mi, 30.11. 5:00 8(330m)
Mi, 30.11. 4:30 8(180m)
Mi, 30.11. 4:00 8(120m)
Ortszeit Luftdruck NN (hPa) Tendenz (hPa in 3 Std.)
Mi, 30.11. 7:00 1022 + 0,7
Mi, 30.11. 1:00 1021 + 0,4
Di, 29.11. 19:00 1020 + 0,9
Di, 29.11. 13:00 1018 + 0,8
Di, 29.11. 7:00 1016 + 1,1
Di, 29.11. 1:00 1014 + 0,5
Mo, 28.11. 19:00 1013 + 0,4
Mo, 28.11. 13:00 1012 - 0,3
Ortszeit Luftdruck NN (hPa) Tendenz (hPa in 3 Std.)
Mi, 30.11. 7:00 1022 + 0,7
Mi, 30.11. 6:50 1022 keine Meldung
Mi, 30.11. 6:40 1022 keine Meldung
Mi, 30.11. 6:30 1022 + 0,5
Mi, 30.11. 6:20 1022 keine Meldung
Mi, 30.11. 6:10 1022 keine Meldung
Mi, 30.11. 6:00 1022 + 0,4
Mi, 30.11. 5:30 1022 + 0,4
Mi, 30.11. 5:00 1022 + 0,4
Mi, 30.11. 4:30 1021 + 0,2
Mi, 30.11. 4:00 1021 + 0,2
Ortszeit Schneehöhe (cm)
Mi, 30.11. 7:00 0
Mi, 30.11. 1:00 0
Di, 29.11. 19:00 0
Di, 29.11. 13:00 0
Di, 29.11. 7:00 0
Di, 29.11. 1:00 0
Mo, 28.11. 19:00 0
Mo, 28.11. 13:00 0
Ortszeit Schneehöhe (cm)
Mi, 30.11. 7:00 0
Mi, 30.11. 6:50 0
Mi, 30.11. 6:40 0
Mi, 30.11. 6:30 0
Mi, 30.11. 6:20 0
Mi, 30.11. 6:10 0
Mi, 30.11. 6:00 0
Mi, 30.11. 5:30 0
Mi, 30.11. 5:00 0
Mi, 30.11. 4:30 0
Mi, 30.11. 4:00 0
Link zu dieser Seite / Seite empfehlen

Das Wetter in ...